sensor_id;sensor_type;location;lat;lon;timestamp;pressure;altitude;pressure_sealevel;temperature;humidity
27729;BME280;15126;42.186;24.340;2022-09-29T00:00:47;98326.97;;;17.04;79.82
27729;BME280;15126;42.186;24.340;2022-09-29T00:03:15;98310.53;;;16.97;79.56
27729;BME280;15126;42.186;24.340;2022-09-29T00:05:46;98319.50;;;16.96;80.59
27729;BME280;15126;42.186;24.340;2022-09-29T00:08:16;98316.69;;;16.96;80.59
27729;BME280;15126;42.186;24.340;2022-09-29T00:10:43;98300.16;;;16.83;80.58
27729;BME280;15126;42.186;24.340;2022-09-29T00:13:10;98324.06;;;16.93;80.95
27729;BME280;15126;42.186;24.340;2022-09-29T00:15:38;98331.75;;;16.93;80.89
27729;BME280;15126;42.186;24.340;2022-09-29T00:18:05;98313.53;;;16.88;81.13
27729;BME280;15126;42.186;24.340;2022-09-29T00:20:33;98325.28;;;16.87;81.46
27729;BME280;15126;42.186;24.340;2022-09-29T00:23:00;98320.88;;;16.80;81.10
27729;BME280;15126;42.186;24.340;2022-09-29T00:25:29;98326.28;;;16.84;81.36
27729;BME280;15126;42.186;24.340;2022-09-29T00:27:56;98329.81;;;16.79;82.01
27729;BME280;15126;42.186;24.340;2022-09-29T00:30:23;98326.75;;;16.77;81.65
27729;BME280;15126;42.186;24.340;2022-09-29T00:32:50;98310.53;;;16.72;81.55
27729;BME280;15126;42.186;24.340;2022-09-29T00:35:16;98314.91;;;16.73;81.61
27729;BME280;15126;42.186;24.340;2022-09-29T00:37:43;98320.28;;;16.71;81.64
27729;BME280;15126;42.186;24.340;2022-09-29T00:40:10;98318.19;;;16.65;82.23
27729;BME280;15126;42.186;24.340;2022-09-29T00:42:38;98327.88;;;16.64;82.18
27729;BME280;15126;42.186;24.340;2022-09-29T00:45:16;98321.69;;;16.60;81.96
27729;BME280;15126;42.186;24.340;2022-09-29T00:47:46;98328.88;;;16.61;82.27
27729;BME280;15126;42.186;24.340;2022-09-29T00:50:19;98329.84;;;16.58;82.32
27729;BME280;15126;42.186;24.340;2022-09-29T00:52:50;98322.69;;;16.57;82.01
27729;BME280;15126;42.186;24.340;2022-09-29T00:55:23;98326.50;;;16.54;82.11
27729;BME280;15126;42.186;24.340;2022-09-29T00:57:55;98336.38;;;16.50;81.87
27729;BME280;15126;42.186;24.340;2022-09-29T01:00:25;98333.94;;;16.37;83.52
27729;BME280;15126;42.186;24.340;2022-09-29T01:02:55;98343.44;;;16.40;82.30
27729;BME280;15126;42.186;24.340;2022-09-29T01:05:26;98348.09;;;16.43;82.35
27729;BME280;15126;42.186;24.340;2022-09-29T01:07:54;98348.78;;;16.38;82.58
27729;BME280;15126;42.186;24.340;2022-09-29T01:10:22;98342.91;;;16.36;82.34
27729;BME280;15126;42.186;24.340;2022-09-29T01:12:49;98342.91;;;16.36;81.65
27729;BME280;15126;42.186;24.340;2022-09-29T01:15:18;98334.66;;;16.32;82.01
27729;BME280;15126;42.186;24.340;2022-09-29T01:17:46;98342.03;;;16.30;81.61
27729;BME280;15126;42.186;24.340;2022-09-29T01:20:16;98342.53;;;16.28;82.10
27729;BME280;15126;42.186;24.340;2022-09-29T01:23:12;98349.13;;;16.25;82.33
27729;BME280;15126;42.186;24.340;2022-09-29T01:26:03;98343.41;;;16.14;82.26
27729;BME280;15126;42.186;24.340;2022-09-29T01:28:49;98364.47;;;16.04;83.47
27729;BME280;15126;42.186;24.340;2022-09-29T01:31:29;98363.22;;;16.05;82.75
27729;BME280;15126;42.186;24.340;2022-09-29T01:34:04;98364.00;;;16.05;82.27
27729;BME280;15126;42.186;24.340;2022-09-29T01:36:39;98361.88;;;16.00;82.64
27729;BME280;15126;42.186;24.340;2022-09-29T01:39:14;98369.25;;;15.98;82.38
27729;BME280;15126;42.186;24.340;2022-09-29T01:41:45;98371.75;;;15.96;82.70
27729;BME280;15126;42.186;24.340;2022-09-29T01:44:20;98366.84;;;15.91;82.60
27729;BME280;15126;42.186;24.340;2022-09-29T01:46:52;98368.06;;;15.70;83.85
27729;BME280;15126;42.186;24.340;2022-09-29T01:49:21;98372.81;;;15.78;82.97
27729;BME280;15126;42.186;24.340;2022-09-29T01:51:53;98370.19;;;15.75;83.33
27729;BME280;15126;42.186;24.340;2022-09-29T01:54:24;98377.06;;;15.74;83.65
27729;BME280;15126;42.186;24.340;2022-09-29T01:56:57;98361.41;;;15.67;83.17
27729;BME280;15126;42.186;24.340;2022-09-29T01:59:31;98350.34;;;15.64;82.83
27729;BME280;15126;42.186;24.340;2022-09-29T02:02:05;98372.22;;;15.74;82.80
27729;BME280;15126;42.186;24.340;2022-09-29T02:04:37;98375.81;;;15.75;82.46
27729;BME280;15126;42.186;24.340;2022-09-29T02:07:10;98370.69;;;15.73;82.88
27729;BME280;15126;42.186;24.340;2022-09-29T02:09:42;98368.00;;;15.64;83.01
27729;BME280;15126;42.186;24.340;2022-09-29T02:12:13;98379.13;;;15.73;82.70
27729;BME280;15126;42.186;24.340;2022-09-29T02:14:45;98381.84;;;15.68;83.12
27729;BME280;15126;42.186;24.340;2022-09-29T02:17:17;98379.03;;;15.68;82.55
27729;BME280;15126;42.186;24.340;2022-09-29T02:19:47;98378.44;;;15.64;83.35
27729;BME280;15126;42.186;24.340;2022-09-29T02:22:14;98387.38;;;15.62;82.77
27729;BME280;15126;42.186;24.340;2022-09-29T02:24:41;98396.00;;;15.59;82.93
27729;BME280;15126;42.186;24.340;2022-09-29T02:27:08;98407.16;;;15.53;83.56
27729;BME280;15126;42.186;24.340;2022-09-29T02:29:36;98400.47;;;15.51;83.12
27729;BME280;15126;42.186;24.340;2022-09-29T02:32:03;98414.81;;;15.53;83.18
27729;BME280;15126;42.186;24.340;2022-09-29T02:34:35;98392.72;;;15.45;83.06
27729;BME280;15126;42.186;24.340;2022-09-29T02:37:19;98407.66;;;15.52;83.37
27729;BME280;15126;42.186;24.340;2022-09-29T02:39:53;98396.09;;;15.49;83.27
27729;BME280;15126;42.186;24.340;2022-09-29T02:42:31;98393.78;;;15.48;82.84
27729;BME280;15126;42.186;24.340;2022-09-29T02:45:18;98395.34;;;15.49;83.12
27729;BME280;15126;42.186;24.340;2022-09-29T02:48:10;98377.41;;;15.46;83.36
27729;BME280;15126;42.186;24.340;2022-09-29T02:50:51;98385.25;;;15.42;83.33
27729;BME280;15126;42.186;24.340;2022-09-29T02:53:29;98384.38;;;15.36;83.28
27729;BME280;15126;42.186;24.340;2022-09-29T02:56:02;98392.13;;;15.41;83.15
27729;BME280;15126;42.186;24.340;2022-09-29T02:58:38;98401.81;;;15.40;82.82
27729;BME280;15126;42.186;24.340;2022-09-29T03:01:08;98387.19;;;15.36;82.85
27729;BME280;15126;42.186;24.340;2022-09-29T03:03:35;98387.97;;;15.37;83.23
27729;BME280;15126;42.186;24.340;2022-09-29T03:06:03;98382.34;;;15.37;83.31
27729;BME280;15126;42.186;24.340;2022-09-29T03:08:30;98378.47;;;15.34;84.02
27729;BME280;15126;42.186;24.340;2022-09-29T03:10:57;98385.28;;;15.13;85.58
27729;BME280;15126;42.186;24.340;2022-09-29T03:13:24;98387.97;;;15.22;84.59
27729;BME280;15126;42.186;24.340;2022-09-29T03:15:51;98395.91;;;15.24;84.33
27729;BME280;15126;42.186;24.340;2022-09-29T03:18:18;98396.38;;;15.22;84.40
27729;BME280;15126;42.186;24.340;2022-09-29T03:20:47;98399.19;;;15.22;84.54
27729;BME280;15126;42.186;24.340;2022-09-29T03:23:15;98406.09;;;15.21;84.71
27729;BME280;15126;42.186;24.340;2022-09-29T03:25:42;98390.47;;;15.20;84.89
27729;BME280;15126;42.186;24.340;2022-09-29T03:28:09;98384.09;;;15.20;84.62
27729;BME280;15126;42.186;24.340;2022-09-29T03:30:35;98394.53;;;15.19;84.73
27729;BME280;15126;42.186;24.340;2022-09-29T03:33:02;98393.97;;;15.15;84.34
27729;BME280;15126;42.186;24.340;2022-09-29T03:35:29;98402.41;;;15.15;84.35
27729;BME280;15126;42.186;24.340;2022-09-29T03:37:56;98404.81;;;15.08;85.32
27729;BME280;15126;42.186;24.340;2022-09-29T03:40:25;98412.75;;;15.09;84.99
27729;BME280;15126;42.186;24.340;2022-09-29T03:42:52;98412.47;;;15.07;84.79
27729;BME280;15126;42.186;24.340;2022-09-29T03:45:18;98398.44;;;15.07;84.64
27729;BME280;15126;42.186;24.340;2022-09-29T03:47:45;98413.97;;;14.79;85.00
27729;BME280;15126;42.186;24.340;2022-09-29T03:50:12;98413.84;;;14.59;85.92
27729;BME280;15126;42.186;24.340;2022-09-29T03:52:39;98369.91;;;14.56;84.74
27729;BME280;15126;42.186;24.340;2022-09-29T03:55:06;98394.88;;;14.68;85.88
27729;BME280;15126;42.186;24.340;2022-09-29T03:57:35;98396.56;;;14.51;86.39
27729;BME280;15126;42.186;24.340;2022-09-29T04:00:04;98403.59;;;14.32;86.62
27729;BME280;15126;42.186;24.340;2022-09-29T04:02:30;98414.41;;;14.48;86.29
27729;BME280;15126;42.186;24.340;2022-09-29T04:04:58;98403.81;;;14.43;87.02
27729;BME280;15126;42.186;24.340;2022-09-29T04:07:25;98405.19;;;14.48;85.94
27729;BME280;15126;42.186;24.340;2022-09-29T04:09:52;98405.25;;;14.39;87.27
27729;BME280;15126;42.186;24.340;2022-09-29T04:12:19;98416.72;;;14.50;86.45
27729;BME280;15126;42.186;24.340;2022-09-29T04:14:47;98412.94;;;14.53;86.57
27729;BME280;15126;42.186;24.340;2022-09-29T04:17:14;98430.47;;;14.62;86.39
27729;BME280;15126;42.186;24.340;2022-09-29T04:19:40;98435.44;;;14.67;86.20
27729;BME280;15126;42.186;24.340;2022-09-29T04:22:07;98445.56;;;14.65;86.37
27729;BME280;15126;42.186;24.340;2022-09-29T04:24:35;98458.31;;;14.75;85.87
27729;BME280;15126;42.186;24.340;2022-09-29T04:27:01;98454.59;;;14.69;86.18
27729;BME280;15126;42.186;24.340;2022-09-29T04:29:28;98466.53;;;14.78;86.08
27729;BME280;15126;42.186;24.340;2022-09-29T04:31:56;98468.78;;;14.51;86.22
27729;BME280;15126;42.186;24.340;2022-09-29T04:34:23;98461.16;;;14.66;85.44
27729;BME280;15126;42.186;24.340;2022-09-29T04:36:50;98464.19;;;14.77;85.16
27729;BME280;15126;42.186;24.340;2022-09-29T04:39:17;98452.31;;;14.82;84.78
27729;BME280;15126;42.186;24.340;2022-09-29T04:41:44;98466.00;;;14.89;84.11
27729;BME280;15126;42.186;24.340;2022-09-29T04:44:11;98460.72;;;14.82;84.89
27729;BME280;15126;42.186;24.340;2022-09-29T04:46:38;98472.78;;;14.97;84.07
27729;BME280;15126;42.186;24.340;2022-09-29T04:49:06;98449.25;;;14.95;83.64
27729;BME280;15126;42.186;24.340;2022-09-29T04:51:33;98472.41;;;15.04;83.00
27729;BME280;15126;42.186;24.340;2022-09-29T04:53:59;98476.28;;;15.07;82.77
27729;BME280;15126;42.186;24.340;2022-09-29T04:56:26;98468.34;;;15.05;83.55
27729;BME280;15126;42.186;24.340;2022-09-29T04:58:55;98472.50;;;15.10;83.37
27729;BME280;15126;42.186;24.340;2022-09-29T05:01:22;98472.31;;;15.13;82.96
27729;BME280;15126;42.186;24.340;2022-09-29T05:03:49;98473.19;;;15.19;82.39
27729;BME280;15126;42.186;24.340;2022-09-29T05:06:17;98471.75;;;15.24;82.05
27729;BME280;15126;42.186;24.340;2022-09-29T05:08:44;98468.75;;;15.27;81.88
27729;BME280;15126;42.186;24.340;2022-09-29T05:11:11;98464.69;;;15.28;82.96
27729;BME280;15126;42.186;24.340;2022-09-29T05:13:38;98460.22;;;15.36;82.54
27729;BME280;15126;42.186;24.340;2022-09-29T05:16:06;98449.59;;;15.40;82.04
27729;BME280;15126;42.186;24.340;2022-09-29T05:18:33;98443.19;;;15.40;81.74
27729;BME280;15126;42.186;24.340;2022-09-29T05:21:03;98458.81;;;15.56;81.29
27729;BME280;15126;42.186;24.340;2022-09-29T05:23:31;98453.28;;;15.61;81.41
27729;BME280;15126;42.186;24.340;2022-09-29T05:26:02;98462.78;;;15.64;81.22
27729;BME280;15126;42.186;24.340;2022-09-29T05:28:29;98465.50;;;15.73;80.25
27729;BME280;15126;42.186;24.340;2022-09-29T05:31:00;98466.66;;;15.81;79.23
27729;BME280;15126;42.186;24.340;2022-09-29T05:33:27;98462.63;;;15.87;79.59
27729;BME280;15126;42.186;24.340;2022-09-29T05:35:54;98457.09;;;15.93;80.31
27729;BME280;15126;42.186;24.340;2022-09-29T05:38:21;98449.34;;;16.02;79.44
27729;BME280;15126;42.186;24.340;2022-09-29T05:40:50;98451.25;;;16.11;79.64
27729;BME280;15126;42.186;24.340;2022-09-29T05:43:17;98444.25;;;16.21;80.43
27729;BME280;15126;42.186;24.340;2022-09-29T05:45:43;98434.69;;;16.33;79.91
27729;BME280;15126;42.186;24.340;2022-09-29T05:48:10;98430.41;;;16.38;78.39
27729;BME280;15126;42.186;24.340;2022-09-29T05:50:37;98415.50;;;16.52;77.96
27729;BME280;15126;42.186;24.340;2022-09-29T05:53:06;98418.69;;;16.59;77.57
27729;BME280;15126;42.186;24.340;2022-09-29T05:55:34;98430.41;;;16.78;77.51
27729;BME280;15126;42.186;24.340;2022-09-29T05:58:03;98446.03;;;16.99;77.97
27729;BME280;15126;42.186;24.340;2022-09-29T06:00:30;98425.31;;;17.02;78.11
27729;BME280;15126;42.186;24.340;2022-09-29T06:02:57;98440.41;;;17.25;78.10
27729;BME280;15126;42.186;24.340;2022-09-29T06:05:25;98431.88;;;17.45;77.99
27729;BME280;15126;42.186;24.340;2022-09-29T06:07:51;98417.91;;;17.56;78.95
27729;BME280;15126;42.186;24.340;2022-09-29T06:10:19;98434.19;;;17.72;76.14
27729;BME280;15126;42.186;24.340;2022-09-29T06:12:46;98440.47;;;17.88;75.87
27729;BME280;15126;42.186;24.340;2022-09-29T06:15:14;98451.94;;;18.10;75.65
27729;BME280;15126;42.186;24.340;2022-09-29T06:17:42;98450.47;;;18.25;73.23
27729;BME280;15126;42.186;24.340;2022-09-29T06:20:09;98446.47;;;18.43;71.52
27729;BME280;15126;42.186;24.340;2022-09-29T06:22:36;98435.03;;;18.58;72.04
27729;BME280;15126;42.186;24.340;2022-09-29T06:25:04;98437.16;;;18.74;68.95
27729;BME280;15126;42.186;24.340;2022-09-29T06:27:30;98452.91;;;18.91;70.03
27729;BME280;15126;42.186;24.340;2022-09-29T06:29:57;98450.38;;;19.10;71.38
27729;BME280;15126;42.186;24.340;2022-09-29T06:32:26;98444.00;;;19.26;68.96
27729;BME280;15126;42.186;24.340;2022-09-29T06:34:53;98439.66;;;19.42;69.46
27729;BME280;15126;42.186;24.340;2022-09-29T06:37:43;98446.13;;;19.59;67.46
27729;BME280;15126;42.186;24.340;2022-09-29T06:40:12;98447.94;;;19.62;68.80
27729;BME280;15126;42.186;24.340;2022-09-29T06:42:39;98464.38;;;19.80;67.27
27729;BME280;15126;42.186;24.340;2022-09-29T06:45:07;98447.13;;;19.95;67.39
27729;BME280;15126;42.186;24.340;2022-09-29T06:47:36;98450.47;;;20.04;67.78
27729;BME280;15126;42.186;24.340;2022-09-29T06:50:04;98452.28;;;20.13;67.13
27729;BME280;15126;42.186;24.340;2022-09-29T06:52:31;98445.59;;;20.10;65.88
27729;BME280;15126;42.186;24.340;2022-09-29T06:54:58;98439.91;;;20.22;66.74
27729;BME280;15126;42.186;24.340;2022-09-29T06:57:24;98447.59;;;20.49;66.77
27729;BME280;15126;42.186;24.340;2022-09-29T06:59:51;98444.94;;;20.73;67.55
27729;BME280;15126;42.186;24.340;2022-09-29T07:02:18;98443.34;;;20.83;65.44
27729;BME280;15126;42.186;24.340;2022-09-29T07:04:47;98450.19;;;21.04;64.42
27729;BME280;15126;42.186;24.340;2022-09-29T07:07:13;98454.22;;;21.25;65.47
27729;BME280;15126;42.186;24.340;2022-09-29T07:09:40;98454.59;;;21.11;63.17
27729;BME280;15126;42.186;24.340;2022-09-29T07:12:08;98455.72;;;21.38;64.26
27729;BME280;15126;42.186;24.340;2022-09-29T07:14:35;98471.81;;;21.59;66.41
27729;BME280;15126;42.186;24.340;2022-09-29T07:17:02;98480.22;;;21.76;64.49
27729;BME280;15126;42.186;24.340;2022-09-29T07:19:29;98482.66;;;21.96;63.98
27729;BME280;15126;42.186;24.340;2022-09-29T07:21:58;98472.53;;;22.06;64.45
27729;BME280;15126;42.186;24.340;2022-09-29T07:24:25;98470.28;;;22.23;62.50
27729;BME280;15126;42.186;24.340;2022-09-29T07:26:51;98476.59;;;22.40;64.09
27729;BME280;15126;42.186;24.340;2022-09-29T07:29:18;98477.53;;;22.48;60.47
27729;BME280;15126;42.186;24.340;2022-09-29T07:31:45;98466.03;;;22.60;61.43
27729;BME280;15126;42.186;24.340;2022-09-29T07:34:13;98472.69;;;22.68;59.89
27729;BME280;15126;42.186;24.340;2022-09-29T07:36:40;98465.81;;;22.82;60.73
27729;BME280;15126;42.186;24.340;2022-09-29T07:39:08;98463.44;;;22.86;60.22
27729;BME280;15126;42.186;24.340;2022-09-29T07:41:35;98474.69;;;22.97;59.56
27729;BME280;15126;42.186;24.340;2022-09-29T07:44:02;98480.47;;;23.10;56.77
27729;BME280;15126;42.186;24.340;2022-09-29T07:46:28;98485.25;;;23.21;58.11
27729;BME280;15126;42.186;24.340;2022-09-29T07:48:57;98476.69;;;23.02;59.04
27729;BME280;15126;42.186;24.340;2022-09-29T07:51:24;98474.25;;;23.11;55.63
27729;BME280;15126;42.186;24.340;2022-09-29T07:53:50;98474.63;;;23.21;58.16
27729;BME280;15126;42.186;24.340;2022-09-29T07:56:20;98477.38;;;23.08;56.17
27729;BME280;15126;42.186;24.340;2022-09-29T07:58:48;98478.72;;;23.07;58.17
27729;BME280;15126;42.186;24.340;2022-09-29T08:01:17;98476.94;;;23.04;58.63
27729;BME280;15126;42.186;24.340;2022-09-29T08:03:49;98482.63;;;23.04;56.06
27729;BME280;15126;42.186;24.340;2022-09-29T08:06:16;98473.25;;;23.09;58.71
27729;BME280;15126;42.186;24.340;2022-09-29T08:08:43;98481.84;;;23.22;58.89
27729;BME280;15126;42.186;24.340;2022-09-29T08:11:11;98484.06;;;23.29;57.95
27729;BME280;15126;42.186;24.340;2022-09-29T08:13:40;98488.69;;;23.32;57.97
27729;BME280;15126;42.186;24.340;2022-09-29T08:16:09;98483.44;;;23.42;57.26
27729;BME280;15126;42.186;24.340;2022-09-29T08:18:37;98488.63;;;23.56;55.99
27729;BME280;15126;42.186;24.340;2022-09-29T08:21:05;98472.94;;;23.68;56.14
27729;BME280;15126;42.186;24.340;2022-09-29T08:23:34;98475.69;;;23.74;57.03
27729;BME280;15126;42.186;24.340;2022-09-29T08:26:02;98475.66;;;23.93;58.22
27729;BME280;15126;42.186;24.340;2022-09-29T08:28:29;98466.25;;;23.98;57.00
27729;BME280;15126;42.186;24.340;2022-09-29T08:31:00;98475.75;;;24.19;55.24
27729;BME280;15126;42.186;24.340;2022-09-29T08:33:27;98477.09;;;24.31;56.34
27729;BME280;15126;42.186;24.340;2022-09-29T08:35:55;98485.56;;;24.37;53.92
27729;BME280;15126;42.186;24.340;2022-09-29T08:38:23;98483.47;;;24.37;52.69
27729;BME280;15126;42.186;24.340;2022-09-29T08:40:50;98483.69;;;24.26;54.69
27729;BME280;15126;42.186;24.340;2022-09-29T08:43:20;98482.94;;;24.39;52.38
27729;BME280;15126;42.186;24.340;2022-09-29T08:45:55;98478.41;;;24.30;53.74
27729;BME280;15126;42.186;24.340;2022-09-29T08:48:27;98471.41;;;24.44;53.92
27729;BME280;15126;42.186;24.340;2022-09-29T08:50:57;98472.97;;;24.58;54.33
27729;BME280;15126;42.186;24.340;2022-09-29T08:53:26;98461.88;;;24.55;52.67
27729;BME280;15126;42.186;24.340;2022-09-29T08:55:57;98471.22;;;24.55;52.55
27729;BME280;15126;42.186;24.340;2022-09-29T08:58:26;98463.66;;;24.58;54.22
27729;BME280;15126;42.186;24.340;2022-09-29T09:01:02;98458.94;;;24.60;53.34
27729;BME280;15126;42.186;24.340;2022-09-29T09:06:35;98463.88;;;24.60;51.30
27729;BME280;15126;42.186;24.340;2022-09-29T09:09:20;98461.88;;;24.68;51.56
27729;BME280;15126;42.186;24.340;2022-09-29T09:12:04;98457.63;;;24.74;52.63
27729;BME280;15126;42.186;24.340;2022-09-29T09:14:47;98456.06;;;24.73;51.12
27729;BME280;15126;42.186;24.340;2022-09-29T09:17:26;98449.94;;;24.96;53.38
27729;BME280;15126;42.186;24.340;2022-09-29T09:20:06;98447.31;;;25.11;51.74
27729;BME280;15126;42.186;24.340;2022-09-29T09:22:44;98442.47;;;25.19;49.88
27729;BME280;15126;42.186;24.340;2022-09-29T09:25:20;98448.78;;;25.25;52.17
27729;BME280;15126;42.186;24.340;2022-09-29T09:27:55;98435.34;;;25.46;50.45
27729;BME280;15126;42.186;24.340;2022-09-29T09:30:29;98443.91;;;25.59;50.66
27729;BME280;15126;42.186;24.340;2022-09-29T09:33:00;98448.84;;;25.59;49.72
27729;BME280;15126;42.186;24.340;2022-09-29T09:35:35;98444.75;;;25.67;49.94
27729;BME280;15126;42.186;24.340;2022-09-29T09:38:11;98449.16;;;25.89;49.10
27729;BME280;15126;42.186;24.340;2022-09-29T09:40:42;98443.69;;;25.98;50.98
27729;BME280;15126;42.186;24.340;2022-09-29T09:43:13;98453.22;;;26.14;48.30
27729;BME280;15126;42.186;24.340;2022-09-29T09:45:47;98453.63;;;26.18;48.02
27729;BME280;15126;42.186;24.340;2022-09-29T09:48:19;98454.50;;;26.34;48.45
27729;BME280;15126;42.186;24.340;2022-09-29T09:50:49;98447.91;;;26.39;47.06
27729;BME280;15126;42.186;24.340;2022-09-29T09:53:19;98464.78;;;26.29;47.04
27729;BME280;15126;42.186;24.340;2022-09-29T09:56:00;98459.06;;;26.29;47.37
27729;BME280;15126;42.186;24.340;2022-09-29T09:58:49;98463.09;;;26.34;48.16
27729;BME280;15126;42.186;24.340;2022-09-29T10:01:16;98468.66;;;26.39;47.10
27729;BME280;15126;42.186;24.340;2022-09-29T10:03:43;98441.38;;;26.31;46.75
27729;BME280;15126;42.186;24.340;2022-09-29T10:06:11;98456.78;;;26.56;46.42
27729;BME280;15126;42.186;24.340;2022-09-29T10:08:39;98459.84;;;26.58;47.21
27729;BME280;15126;42.186;24.340;2022-09-29T10:11:19;98449.31;;;26.53;49.40
27729;BME280;15126;42.186;24.340;2022-09-29T10:13:49;98451.03;;;26.77;47.75
27729;BME280;15126;42.186;24.340;2022-09-29T10:16:24;98455.97;;;26.76;52.36
27729;BME280;15126;42.186;24.340;2022-09-29T10:18:53;98453.06;;;26.97;49.71
27729;BME280;15126;42.186;24.340;2022-09-29T10:21:34;98456.38;;;27.08;47.86
27729;BME280;15126;42.186;24.340;2022-09-29T10:24:02;98433.44;;;27.01;47.12
27729;BME280;15126;42.186;24.340;2022-09-29T10:26:32;98453.56;;;27.24;47.06
27729;BME280;15126;42.186;24.340;2022-09-29T10:29:02;98457.97;;;27.25;46.86
27729;BME280;15126;42.186;24.340;2022-09-29T10:31:31;98456.22;;;27.22;45.17
27729;BME280;15126;42.186;24.340;2022-09-29T10:34:01;98455.69;;;27.23;46.84
27729;BME280;15126;42.186;24.340;2022-09-29T10:36:32;98453.59;;;26.88;47.11
27729;BME280;15126;42.186;24.340;2022-09-29T10:38:59;98444.31;;;27.02;45.92
27729;BME280;15126;42.186;24.340;2022-09-29T10:41:26;98446.44;;;27.09;46.44
27729;BME280;15126;42.186;24.340;2022-09-29T10:43:53;98441.38;;;26.87;46.15
27729;BME280;15126;42.186;24.340;2022-09-29T10:46:37;98426.16;;;26.72;47.58
27729;BME280;15126;42.186;24.340;2022-09-29T10:49:09;98433.59;;;26.39;45.73
27729;BME280;15126;42.186;24.340;2022-09-29T10:51:38;98432.56;;;26.57;47.12
27729;BME280;15126;42.186;24.340;2022-09-29T10:54:07;98424.16;;;26.51;48.39
27729;BME280;15126;42.186;24.340;2022-09-29T10:56:35;98428.22;;;26.63;46.33
27729;BME280;15126;42.186;24.340;2022-09-29T10:59:02;98414.56;;;26.77;44.81
27729;BME280;15126;42.186;24.340;2022-09-29T11:01:32;98409.75;;;26.72;45.92
27729;BME280;15126;42.186;24.340;2022-09-29T11:04:06;98419.53;;;26.48;47.31
27729;BME280;15126;42.186;24.340;2022-09-29T11:06:42;98417.84;;;26.53;47.80
27729;BME280;15126;42.186;24.340;2022-09-29T11:09:26;98414.47;;;26.62;46.60
27729;BME280;15126;42.186;24.340;2022-09-29T11:11:55;98418.72;;;26.69;47.81
27729;BME280;15126;42.186;24.340;2022-09-29T11:14:24;98416.91;;;26.79;47.23
27729;BME280;15126;42.186;24.340;2022-09-29T11:16:53;98405.50;;;26.86;45.82
27729;BME280;15126;42.186;24.340;2022-09-29T11:19:21;98395.19;;;26.55;46.01
27729;BME280;15126;42.186;24.340;2022-09-29T11:22:32;98394.50;;;26.70;46.53
27729;BME280;15126;42.186;24.340;2022-09-29T11:25:26;98400.72;;;26.89;46.63
27729;BME280;15126;42.186;24.340;2022-09-29T11:28:09;98394.66;;;27.00;46.09
27729;BME280;15126;42.186;24.340;2022-09-29T11:30:51;98396.63;;;27.12;44.91
27729;BME280;15126;42.186;24.340;2022-09-29T11:33:29;98397.63;;;27.15;46.43
27729;BME280;15126;42.186;24.340;2022-09-29T11:36:04;98390.97;;;27.28;44.99
27729;BME280;15126;42.186;24.340;2022-09-29T11:38:40;98381.91;;;27.01;45.08
27729;BME280;15126;42.186;24.340;2022-09-29T11:41:23;98383.22;;;27.00;46.46
27729;BME280;15126;42.186;24.340;2022-09-29T11:44:02;98364.56;;;27.06;45.57
27729;BME280;15126;42.186;24.340;2022-09-29T11:46:47;98378.53;;;27.25;44.11
27729;BME280;15126;42.186;24.340;2022-09-29T11:49:35;98382.19;;;27.33;43.15
27729;BME280;15126;42.186;24.340;2022-09-29T11:52:24;98379.50;;;27.28;44.23
27729;BME280;15126;42.186;24.340;2022-09-29T11:55:10;98378.72;;;27.19;43.43
27729;BME280;15126;42.186;24.340;2022-09-29T11:57:51;98377.97;;;27.27;43.93
27729;BME280;15126;42.186;24.340;2022-09-29T12:00:33;98377.25;;;27.34;43.54
27729;BME280;15126;42.186;24.340;2022-09-29T12:03:19;98374.94;;;27.40;41.18
27729;BME280;15126;42.186;24.340;2022-09-29T12:06:20;98382.84;;;27.54;41.68
27729;BME280;15126;42.186;24.340;2022-09-29T12:09:00;98377.31;;;27.64;40.30
27729;BME280;15126;42.186;24.340;2022-09-29T12:11:38;98371.78;;;27.66;40.47
27729;BME280;15126;42.186;24.340;2022-09-29T12:14:11;98370.66;;;27.76;39.26
27729;BME280;15126;42.186;24.340;2022-09-29T12:16:44;98379.81;;;27.83;41.19
27729;BME280;15126;42.186;24.340;2022-09-29T12:19:18;98377.16;;;27.85;40.36
27729;BME280;15126;42.186;24.340;2022-09-29T12:21:47;98368.53;;;27.92;38.82
27729;BME280;15126;42.186;24.340;2022-09-29T12:24:18;98365.84;;;27.94;40.56
27729;BME280;15126;42.186;24.340;2022-09-29T12:26:48;98367.22;;;28.01;40.39
27729;BME280;15126;42.186;24.340;2022-09-29T12:29:25;98358.63;;;27.86;41.37
27729;BME280;15126;42.186;24.340;2022-09-29T12:31:57;98366.63;;;27.72;41.59
27729;BME280;15126;42.186;24.340;2022-09-29T12:34:33;98369.09;;;27.83;40.99
27729;BME280;15126;42.186;24.340;2022-09-29T12:37:09;98367.19;;;27.63;40.61
27729;BME280;15126;42.186;24.340;2022-09-29T12:39:43;98369.69;;;27.74;41.28
27729;BME280;15126;42.186;24.340;2022-09-29T12:42:25;98344.09;;;27.68;40.03
27729;BME280;15126;42.186;24.340;2022-09-29T12:45:00;98364.91;;;27.92;41.61
27729;BME280;15126;42.186;24.340;2022-09-29T12:47:46;98371.22;;;27.98;40.02
27729;BME280;15126;42.186;24.340;2022-09-29T12:50:17;98374.84;;;27.98;40.91
27729;BME280;15126;42.186;24.340;2022-09-29T12:52:48;98366.28;;;28.06;39.31
27729;BME280;15126;42.186;24.340;2022-09-29T12:55:25;98369.72;;;28.12;39.58
27729;BME280;15126;42.186;24.340;2022-09-29T12:57:59;98372.00;;;28.13;41.05
27729;BME280;15126;42.186;24.340;2022-09-29T13:00:30;98355.00;;;28.15;41.87
27729;BME280;15126;42.186;24.340;2022-09-29T13:06:10;98344.66;;;28.20;40.08
27729;BME280;15126;42.186;24.340;2022-09-29T13:08:49;98348.50;;;28.15;40.25
27729;BME280;15126;42.186;24.340;2022-09-29T13:14:48;98349.25;;;28.23;40.92
27729;BME280;15126;42.186;24.340;2022-09-29T13:17:43;98351.16;;;28.20;41.56
27729;BME280;15126;42.186;24.340;2022-09-29T13:20:41;98350.97;;;28.18;42.35